createdAt,value
2023-03-18T00:01:51.848Z,11.11
2023-03-18T00:06:53.416Z,11.14
2023-03-18T00:11:56.622Z,11.14
2023-03-18T00:16:58.008Z,10.96
2023-03-18T00:21:59.707Z,10.79
2023-03-18T00:27:01.163Z,10.70
2023-03-18T00:32:02.678Z,10.61
2023-03-18T00:37:04.080Z,10.57
2023-03-18T00:42:10.673Z,10.56
2023-03-18T00:47:12.133Z,10.58
2023-03-18T00:52:13.650Z,10.54
2023-03-18T00:57:15.064Z,10.55
2023-03-18T01:02:17.125Z,10.45
2023-03-18T01:07:19.491Z,10.42
2023-03-18T01:12:21.291Z,10.43
2023-03-18T01:17:22.780Z,10.47
2023-03-18T01:22:24.398Z,10.50
2023-03-18T01:27:27.050Z,10.44
2023-03-18T01:32:28.931Z,10.34
2023-03-18T01:37:31.557Z,10.24
2023-03-18T01:42:33.251Z,10.10
2023-03-18T01:47:35.147Z,10.01
2023-03-18T01:52:37.191Z,9.99
2023-03-18T01:57:38.791Z,9.90
2023-03-18T02:02:42.412Z,9.85
2023-03-18T02:07:45.694Z,9.74
2023-03-18T02:12:52.526Z,9.60
2023-03-18T02:17:59.633Z,9.50
2023-03-18T02:23:29.160Z,9.41
2023-03-18T02:28:33.445Z,9.36
2023-03-18T02:33:38.901Z,9.37
2023-03-18T02:38:44.544Z,9.33
2023-03-18T02:43:46.866Z,9.28
2023-03-18T02:48:48.932Z,9.16
2023-03-18T02:53:51.702Z,9.04
2023-03-18T02:58:53.133Z,9.08
2023-03-18T03:03:54.880Z,9.12
2023-03-18T03:08:57.395Z,9.15
2023-03-18T03:13:58.924Z,9.11
2023-03-18T03:19:00.305Z,9.10
2023-03-18T03:24:06.346Z,9.05
2023-03-18T03:29:07.829Z,8.98
2023-03-18T03:34:09.371Z,8.81
2023-03-18T03:39:10.763Z,8.75
2023-03-18T03:44:12.160Z,8.62
2023-03-18T03:49:13.531Z,8.55
2023-03-18T03:54:15.374Z,8.44
2023-03-18T03:59:16.903Z,8.39
2023-03-18T04:04:18.370Z,8.30
2023-03-18T04:09:19.936Z,8.19
2023-03-18T04:14:21.341Z,8.09
2023-03-18T04:19:22.760Z,8.02
2023-03-18T04:24:24.241Z,7.92
2023-03-18T04:29:27.750Z,7.89
2023-03-18T04:34:29.390Z,7.91
2023-03-18T04:39:30.834Z,7.87
2023-03-18T04:44:32.236Z,7.91
2023-03-18T04:49:34.565Z,7.85
2023-03-18T04:54:37.294Z,7.66
2023-03-18T04:59:38.838Z,7.56
2023-03-18T05:04:40.280Z,7.50
2023-03-18T05:09:42.458Z,7.35
2023-03-18T05:14:44.952Z,7.30
2023-03-18T05:19:48.310Z,7.30
2023-03-18T05:24:50.478Z,7.28
2023-03-18T05:29:52.961Z,7.28
2023-03-18T05:34:54.359Z,7.26
2023-03-18T05:39:55.883Z,7.18
2023-03-18T05:44:57.980Z,7.03
2023-03-18T05:49:59.946Z,6.95
2023-03-18T05:55:02.322Z,6.88
2023-03-18T06:00:04.499Z,6.96
2023-03-18T06:05:06.313Z,7.14
2023-03-18T06:10:08.840Z,7.34
2023-03-18T06:15:11.902Z,7.54
2023-03-18T06:20:15.660Z,7.73
2023-03-18T06:25:20.072Z,7.99
2023-03-18T06:30:22.101Z,8.18
2023-03-18T06:35:26.586Z,8.47
2023-03-18T06:40:28.570Z,9.99
2023-03-18T06:45:30.209Z,10.36
2023-03-18T06:50:32.331Z,12.01
2023-03-18T06:55:34.884Z,13.79
2023-03-18T07:00:36.526Z,15.13
2023-03-18T07:05:38.607Z,15.53
2023-03-18T07:10:40.830Z,17.78
2023-03-18T07:15:42.899Z,19.62
2023-03-18T07:20:44.762Z,21.09
2023-03-18T07:25:46.322Z,22.59
2023-03-18T07:30:47.996Z,24.43
2023-03-18T07:35:50.048Z,25.75
2023-03-18T07:40:51.475Z,27.61
2023-03-18T07:45:52.975Z,27.46
2023-03-18T07:50:54.428Z,26.94
2023-03-18T07:55:56.085Z,29.10
2023-03-18T08:00:57.788Z,30.66
2023-03-18T08:05:59.342Z,30.73
2023-03-18T08:11:02.432Z,31.53
2023-03-18T08:16:04.237Z,32.66
2023-03-18T08:21:06.100Z,31.74
2023-03-18T08:26:07.715Z,28.81
2023-03-18T08:31:09.537Z,27.41
2023-03-18T08:36:12.038Z,28.11
2023-03-18T08:41:14.479Z,28.97
2023-03-18T08:46:16.008Z,29.02
2023-03-18T08:51:17.490Z,27.71
2023-03-18T08:56:18.887Z,26.86
2023-03-18T09:01:22.307Z,26.73
2023-03-18T09:06:23.743Z,25.75
2023-03-18T09:11:25.400Z,25.10
2023-03-18T09:16:27.032Z,25.75
2023-03-18T09:21:28.512Z,26.40
2023-03-18T09:26:30.127Z,26.65
2023-03-18T09:31:31.707Z,26.92
2023-03-18T09:36:33.828Z,27.91
2023-03-18T09:42:03.407Z,28.87
2023-03-18T09:47:22.452Z,27.93
2023-03-18T09:52:37.912Z,26.54
2023-03-18T09:57:44.106Z,25.85
2023-03-18T10:02:53.266Z,25.41
2023-03-18T10:07:59.401Z,26.22
2023-03-18T10:13:11.323Z,26.76
2023-03-18T10:18:29.413Z,25.83
2023-03-18T10:23:31.002Z,25.94
2023-03-18T10:28:35.707Z,25.67
2023-03-18T10:33:47.770Z,24.46
2023-03-18T10:38:51.773Z,24.44
2023-03-18T10:43:55.236Z,24.29
2023-03-18T10:49:06.305Z,25.05
2023-03-18T10:54:22.995Z,24.42
2023-03-18T10:59:26.488Z,23.33
2023-03-18T11:04:31.982Z,24.13
2023-03-18T11:09:39.480Z,24.90
2023-03-18T11:14:42.239Z,24.08
2023-03-18T11:19:49.287Z,23.88
2023-03-18T11:25:13.818Z,24.00
2023-03-18T11:30:33.637Z,22.86
2023-03-18T11:35:54.126Z,22.07
2023-03-18T11:41:16.975Z,22.32
2023-03-18T11:46:18.838Z,22.41
2023-03-18T11:51:40.860Z,22.51
2023-03-18T11:56:49.769Z,22.34
2023-03-18T12:02:12.582Z,22.22
2023-03-18T12:07:44.915Z,21.97
2023-03-18T12:13:03.517Z,22.24
2023-03-18T12:18:14.536Z,22.53
2023-03-18T12:23:39.783Z,22.34
2023-03-18T12:29:01.636Z,22.55
2023-03-18T12:34:04.397Z,22.73
2023-03-18T12:39:37.078Z,22.74
2023-03-18T12:44:47.870Z,22.62
2023-03-18T12:49:54.829Z,22.57
2023-03-18T12:55:05.988Z,22.41
2023-03-18T13:00:19.157Z,22.39
2023-03-18T13:05:43.067Z,22.21
2023-03-18T13:10:50.051Z,22.15
2023-03-18T13:15:52.984Z,22.01
2023-03-18T13:21:16.114Z,22.18
2023-03-18T13:26:41.824Z,22.17
2023-03-18T13:32:15.660Z,21.36
2023-03-18T13:37:36.020Z,21.10
2023-03-18T13:42:40.170Z,21.10
2023-03-18T13:47:44.307Z,21.16
2023-03-18T13:52:47.973Z,21.24
2023-03-18T13:57:57.373Z,20.99
2023-03-18T14:03:19.384Z,20.93
2023-03-18T14:08:34.152Z,20.95
2023-03-18T14:13:36.107Z,21.12
2023-03-18T14:18:38.509Z,21.07
2023-03-18T14:23:44.448Z,21.02
2023-03-18T14:28:55.512Z,21.08
2023-03-18T14:34:03.912Z,21.22
2023-03-18T14:39:07.338Z,21.35
2023-03-18T14:44:20.834Z,21.55
2023-03-18T14:49:39.409Z,21.64
2023-03-18T14:54:43.705Z,21.34
2023-03-18T14:59:45.145Z,21.05
2023-03-18T15:04:53.227Z,21.03
2023-03-18T15:09:55.084Z,20.77
2023-03-18T15:14:56.947Z,20.72
2023-03-18T15:20:00.289Z,20.62
2023-03-18T15:25:04.637Z,20.49
2023-03-18T15:30:07.638Z,20.32
2023-03-18T15:35:36.179Z,20.26
2023-03-18T15:40:52.757Z,20.33
2023-03-18T15:46:00.165Z,20.18
2023-03-18T15:51:04.954Z,20.05
2023-03-18T15:56:26.782Z,20.00
2023-03-18T16:01:28.751Z,19.93
2023-03-18T16:06:34.286Z,19.79
2023-03-18T16:11:36.928Z,19.66
2023-03-18T16:16:38.502Z,19.44
2023-03-18T16:21:41.697Z,19.16
2023-03-18T16:26:43.310Z,19.02
2023-03-18T16:31:46.182Z,18.91
2023-03-18T16:36:50.592Z,18.80
2023-03-18T16:41:52.626Z,18.70
2023-03-18T16:46:56.819Z,18.62
2023-03-18T16:51:59.047Z,18.48
2023-03-18T16:57:04.354Z,18.27
2023-03-18T17:02:25.202Z,18.06
2023-03-18T17:07:28.436Z,17.89
2023-03-18T17:12:30.710Z,17.75
2023-03-18T17:17:35.890Z,17.62
2023-03-18T17:22:37.805Z,17.49
2023-03-18T17:27:50.831Z,17.40
2023-03-18T17:32:52.478Z,17.31
2023-03-18T17:37:54.782Z,17.20
2023-03-18T17:42:56.703Z,17.00
2023-03-18T17:48:14.938Z,16.77
2023-03-18T17:53:28.214Z,16.54
2023-03-18T17:58:32.097Z,16.34
2023-03-18T18:03:36.233Z,16.17
2023-03-18T18:08:37.648Z,16.02
2023-03-18T18:13:40.025Z,15.96
2023-03-18T18:18:41.652Z,15.85
2023-03-18T18:23:45.635Z,15.71
2023-03-18T18:28:49.861Z,15.57
2023-03-18T18:33:52.398Z,15.44
2023-03-18T18:38:55.117Z,15.32
2023-03-18T18:43:56.698Z,15.17
2023-03-18T18:48:58.442Z,15.01
2023-03-18T18:54:00.035Z,14.89
2023-03-18T18:59:05.118Z,14.82
2023-03-18T19:04:13.767Z,14.76
2023-03-18T19:09:21.018Z,14.65
2023-03-18T19:14:25.367Z,14.55
2023-03-18T19:19:34.372Z,14.47
2023-03-18T19:24:36.977Z,14.36
2023-03-18T19:29:38.559Z,14.30
2023-03-18T19:34:40.117Z,14.25
2023-03-18T19:39:42.784Z,14.24
2023-03-18T19:44:46.272Z,14.19
2023-03-18T19:49:47.849Z,14.05
2023-03-18T19:54:50.461Z,13.95
2023-03-18T19:59:53.996Z,13.94
2023-03-18T20:04:58.239Z,13.89
2023-03-18T20:09:59.660Z,13.71
2023-03-18T20:15:01.184Z,13.60
2023-03-18T20:20:02.710Z,13.57
2023-03-18T20:25:06.634Z,13.51
2023-03-18T20:30:21.969Z,13.36
2023-03-18T20:35:28.821Z,13.30
2023-03-18T20:40:31.288Z,13.33
2023-03-18T20:45:33.061Z,13.42
2023-03-18T20:50:35.004Z,13.44
2023-03-18T20:55:36.504Z,13.44
2023-03-18T21:00:38.718Z,13.41
2023-03-18T21:05:40.136Z,13.30
2023-03-18T21:10:42.401Z,13.17
2023-03-18T21:15:43.865Z,13.14
2023-03-18T21:20:45.540Z,13.03
2023-03-18T21:25:47.401Z,12.96
2023-03-18T21:30:52.500Z,12.77
2023-03-18T21:35:57.265Z,12.52
2023-03-18T21:41:00.719Z,12.35
2023-03-18T21:46:05.384Z,12.25
2023-03-18T21:51:09.461Z,12.11
2023-03-18T21:56:11.191Z,12.04
2023-03-18T22:01:19.233Z,11.98
2023-03-18T22:06:21.991Z,12.01
2023-03-18T22:11:23.700Z,12.17
2023-03-18T22:16:25.370Z,12.18
2023-03-18T22:21:28.520Z,12.09
2023-03-18T22:26:29.975Z,12.01
2023-03-18T22:31:31.566Z,12.06
2023-03-18T22:36:33.098Z,12.05
2023-03-18T22:41:34.490Z,11.95
2023-03-18T22:46:36.135Z,11.83
2023-03-18T22:51:39.804Z,11.72
2023-03-18T22:56:42.154Z,11.60
2023-03-18T23:01:43.765Z,11.49
2023-03-18T23:06:46.105Z,11.51
2023-03-18T23:11:47.610Z,11.65
2023-03-18T23:16:49.126Z,11.47
2023-03-18T23:21:50.639Z,11.38
2023-03-18T23:26:52.044Z,11.28
2023-03-18T23:31:53.511Z,11.25
2023-03-18T23:36:54.978Z,11.32
2023-03-18T23:41:56.587Z,11.30
2023-03-18T23:46:58.131Z,11.49
2023-03-18T23:52:01.232Z,11.50
2023-03-18T23:57:04.137Z,11.53
